Time,TemperatureF,DewpointF,PressureIn,WindDirection,WindDirectionDegrees,WindSpeedMPH,WindSpeedGustMPH,Humidity,HourlyPrecipIn,Conditions,Clouds,dailyrainin,SoftwareType,DateUTC
2013-02-16 00:04:00,33.0,23.0,30.47,NNE,15,0.0,-999.0,67,-99.99,,,0.00,weatherlink.com 1.10,2013-02-16 07:04:00,
2013-02-16 00:19:00,32.8,23.0,30.47,NNE,15,0.0,-999.0,67,-99.99,,,0.00,weatherlink.com 1.10,2013-02-16 07:19:00,
2013-02-16 00:34:00,32.8,23.0,30.47,NNE,15,0.0,-999.0,67,-99.99,,,0.00,weatherlink.com 1.10,2013-02-16 07:34:00,
2013-02-16 00:49:00,32.2,23.0,30.47,NNE,15,0.0,-999.0,68,-99.99,,,0.00,weatherlink.com 1.10,2013-02-16 07:49:00,
2013-02-16 01:04:00,31.4,22.0,30.47,NNE,15,0.0,-999.0,69,-99.99,,,0.00,weatherlink.com 1.10,2013-02-16 08:04:00,
2013-02-16 01:19:00,31.0,22.0,30.46,NNE,15,0.0,-999.0,70,-99.99,,,0.00,weatherlink.com 1.10,2013-02-16 08:19:00,
2013-02-16 01:34:00,30.9,23.0,30.45,NNE,15,0.0,-999.0,71,-99.99,,,0.00,weatherlink.com 1.10,2013-02-16 08:34:00,
2013-02-16 01:49:00,31.0,22.0,30.46,NNE,15,0.0,-999.0,70,-99.99,,,0.00,weatherlink.com 1.10,2013-02-16 08:49:00,
2013-02-16 02:04:00,30.9,22.0,30.46,NNE,15,0.0,-999.0,69,-99.99,,,0.00,weatherlink.com 1.10,2013-02-16 09:04:00,
2013-02-16 02:19:00,30.7,22.0,30.47,NNE,15,0.0,-999.0,69,-99.99,,,0.00,weatherlink.com 1.10,2013-02-16 09:19:00,
2013-02-16 02:34:00,30.1,21.0,30.47,NNE,15,0.0,-999.0,70,-99.99,,,0.00,weatherlink.com 1.10,2013-02-16 09:34:00,
2013-02-16 02:49:00,29.5,21.0,30.48,NNE,15,0.0,-999.0,71,-99.99,,,0.00,weatherlink.com 1.10,2013-02-16 09:49:00,
2013-02-16 03:04:00,29.1,21.0,30.48,NNE,15,0.0,-999.0,72,-99.99,,,0.00,weatherlink.com 1.10,2013-02-16 10:04:00,
2013-02-16 03:19:00,28.9,21.0,30.48,NNE,15,0.0,-999.0,72,-99.99,,,0.00,weatherlink.com 1.10,2013-02-16 10:19:00,
2013-02-16 03:34:00,28.8,20.0,30.48,NNE,15,0.0,-999.0,71,-99.99,,,0.00,weatherlink.com 1.10,2013-02-16 10:34:00,
2013-02-16 03:49:00,28.9,21.0,30.48,NNE,15,0.0,-999.0,72,-99.99,,,0.00,weatherlink.com 1.10,2013-02-16 10:49:00,
2013-02-16 04:04:00,28.4,20.0,30.48,NNE,15,0.0,-999.0,72,-99.99,,,0.00,weatherlink.com 1.10,2013-02-16 11:04:00,
2013-02-16 04:19:00,27.8,21.0,30.49,NNE,15,0.0,-999.0,74,-99.99,,,0.00,weatherlink.com 1.10,2013-02-16 11:19:00,
2013-02-16 04:34:00,27.6,21.0,30.49,NNE,15,0.0,-999.0,75,-99.99,,,0.00,weatherlink.com 1.10,2013-02-16 11:34:00,
2013-02-16 04:49:00,27.3,20.0,30.49,NNE,15,0.0,-999.0,75,-99.99,,,0.00,weatherlink.com 1.10,2013-02-16 11:49:00,
2013-02-16 05:04:00,26.8,20.0,30.49,NNE,15,0.0,-999.0,76,-99.99,,,0.00,weatherlink.com 1.10,2013-02-16 12:04:00,
2013-02-16 05:19:00,26.6,20.0,30.50,NNE,15,0.0,-999.0,77,-99.99,,,0.00,weatherlink.com 1.10,2013-02-16 12:19:00,
2013-02-16 05:34:00,26.4,20.0,30.50,NNE,15,0.0,-999.0,78,-99.99,,,0.00,weatherlink.com 1.10,2013-02-16 12:34:00,
2013-02-16 05:49:00,26.2,20.0,30.51,NNE,15,0.0,-999.0,78,-99.99,,,0.00,weatherlink.com 1.10,2013-02-16 12:49:00,
2013-02-16 06:04:00,26.0,20.0,30.51,NNE,15,0.0,-999.0,78,-99.99,,,0.00,weatherlink.com 1.10,2013-02-16 13:04:00,
2013-02-16 06:19:00,25.8,20.0,30.51,NNE,15,0.0,-999.0,79,-99.99,,,0.00,weatherlink.com 1.10,2013-02-16 13:19:00,
2013-02-16 06:34:00,25.8,20.0,30.52,NNE,15,0.0,-999.0,79,-99.99,,,0.00,weatherlink.com 1.10,2013-02-16 13:34:00,
2013-02-16 06:49:00,26.8,21.0,30.53,NNE,15,0.0,-999.0,80,-99.99,,,0.00,weatherlink.com 1.10,2013-02-16 13:49:00,
2013-02-16 07:04:00,28.4,23.0,30.53,NNE,15,0.0,-999.0,80,-99.99,,,0.00,weatherlink.com 1.10,2013-02-16 14:04:00,
2013-02-16 07:19:00,30.1,23.0,30.53,NNE,15,0.0,-999.0,76,-99.99,,,0.00,weatherlink.com 1.10,2013-02-16 14:19:00,
2013-02-16 07:34:00,33.1,24.0,30.54,NNE,12,0.0,-999.0,70,-99.99,,,0.00,weatherlink.com 1.10,2013-02-16 14:34:00,
2013-02-16 07:49:00,36.1,25.0,30.54,North,11,0.0,-999.0,65,-99.99,,,0.00,weatherlink.com 1.10,2013-02-16 14:49:00,
2013-02-16 08:04:00,39.1,25.0,30.53,North,8,0.0,-999.0,58,-99.99,,,0.00,weatherlink.com 1.10,2013-02-16 15:04:00,
2013-02-16 08:19:00,41.6,25.0,30.53,North,355,0.0,-999.0,53,-99.99,,,0.00,weatherlink.com 1.10,2013-02-16 15:19:00,
2013-02-16 08:34:00,44.3,26.0,30.53,West,281,0.0,-999.0,49,-99.99,,,0.00,weatherlink.com 1.10,2013-02-16 15:34:00,
2013-02-16 08:49:00,46.4,25.0,30.53,West,265,1.0,-999.0,44,-99.99,,,0.00,weatherlink.com 1.10,2013-02-16 15:49:00,
2013-02-16 09:04:00,48.4,27.0,30.53,SW,232,0.0,-999.0,44,-99.99,,,0.00,weatherlink.com 1.10,2013-02-16 16:04:00,
2013-02-16 09:19:00,50.4,28.0,30.53,WSW,249,0.0,-999.0,42,-99.99,,,0.00,weatherlink.com 1.10,2013-02-16 16:19:00,
2013-02-16 09:34:00,51.8,25.0,30.52,West,272,1.0,-999.0,36,-99.99,,,0.00,weatherlink.com 1.10,2013-02-16 16:34:00,
2013-02-16 09:49:00,52.5,27.0,30.52,NNE,25,1.0,-999.0,37,-99.99,,,0.00,weatherlink.com 1.10,2013-02-16 16:49:00,
2013-02-16 10:04:00,54.2,28.0,30.51,West,259,1.0,-999.0,37,-99.99,,,0.00,weatherlink.com 1.10,2013-02-16 17:04:00,
2013-02-16 10:19:00,54.0,25.0,30.51,WNW,300,3.0,-999.0,33,-99.99,,,0.00,weatherlink.com 1.10,2013-02-16 17:19:00,
2013-02-16 10:34:00,54.6,26.0,30.50,NW,304,2.0,-999.0,33,-99.99,,,0.00,weatherlink.com 1.10,2013-02-16 17:34:00,
2013-02-16 10:49:00,56.1,26.0,30.50,NNW,332,2.0,-999.0,32,-99.99,,,0.00,weatherlink.com 1.10,2013-02-16 17:49:00,
2013-02-16 11:04:00,55.5,27.0,30.49,North,5,0.0,-999.0,33,-99.99,,,0.00,weatherlink.com 1.10,2013-02-16 18:04:00,
2013-02-16 11:19:00,57.3,27.0,30.48,WSW,245,0.0,-999.0,32,-99.99,,,0.00,weatherlink.com 1.10,2013-02-16 18:19:00,
2013-02-16 11:34:00,57.5,27.0,30.47,NNW,332,4.0,-999.0,31,-99.99,,,0.00,weatherlink.com 1.10,2013-02-16 18:34:00,
2013-02-16 11:49:00,58.0,27.0,30.46,WNW,285,1.0,-999.0,31,-99.99,,,0.00,weatherlink.com 1.10,2013-02-16 18:49:00,
2013-02-16 12:04:00,59.0,27.0,30.45,WSW,239,3.0,-999.0,30,-99.99,,,0.00,weatherlink.com 1.10,2013-02-16 19:04:00,
2013-02-16 12:19:00,59.0,27.0,30.43,NNW,332,0.0,-999.0,29,-99.99,,,0.00,weatherlink.com 1.10,2013-02-16 19:19:00,
2013-02-16 12:34:00,60.8,25.0,30.41,WNW,292,0.0,-999.0,26,-99.99,,,0.00,weatherlink.com 1.10,2013-02-16 19:34:00,
2013-02-16 12:49:00,60.9,27.0,30.40,SW,232,2.0,-999.0,28,-99.99,,,0.00,weatherlink.com 1.10,2013-02-16 19:49:00,
2013-02-16 13:04:00,61.9,29.0,30.39,SSW,210,5.0,-999.0,29,-99.99,,,0.00,weatherlink.com 1.10,2013-02-16 20:04:00,
2013-02-16 13:19:00,63.1,28.0,30.38,South,184,0.0,-999.0,27,-99.99,,,0.00,weatherlink.com 1.10,2013-02-16 20:19:00,
2013-02-16 13:34:00,63.8,28.0,30.38,WSW,249,0.0,-999.0,26,-99.99,,,0.00,weatherlink.com 1.10,2013-02-16 20:34:00,
2013-02-16 13:49:00,62.2,29.0,30.37,SSW,194,4.0,-999.0,28,-99.99,,,0.00,weatherlink.com 1.10,2013-02-16 20:49:00,
2013-02-16 14:04:00,64.3,28.0,30.36,West,278,2.0,-999.0,25,-99.99,,,0.00,weatherlink.com 1.10,2013-02-16 21:04:00,
2013-02-16 14:19:00,64.3,28.0,30.34,West,273,1.0,-999.0,25,-99.99,,,0.00,weatherlink.com 1.10,2013-02-16 21:19:00,
2013-02-16 14:34:00,64.1,28.0,30.34,WSW,245,1.0,-999.0,26,-99.99,,,0.00,weatherlink.com 1.10,2013-02-16 21:34:00,
2013-02-16 14:49:00,64.3,29.0,30.34,WSW,240,5.0,-999.0,26,-99.99,,,0.00,weatherlink.com 1.10,2013-02-16 21:49:00,
2013-02-16 15:04:00,63.7,27.0,30.33,South,172,0.0,-999.0,25,-99.99,,,0.00,weatherlink.com 1.10,2013-02-16 22:04:00,
2013-02-16 15:19:00,63.7,28.0,30.32,West,271,5.0,-999.0,26,-99.99,,,0.00,weatherlink.com 1.10,2013-02-16 22:19:00,
2013-02-16 15:34:00,63.4,29.0,30.32,WSW,252,4.0,-999.0,27,-99.99,,,0.00,weatherlink.com 1.10,2013-02-16 22:34:00,
2013-02-16 15:49:00,63.1,28.0,30.31,SW,215,2.0,-999.0,27,-99.99,,,0.00,weatherlink.com 1.10,2013-02-16 22:49:00,
2013-02-16 16:04:00,63.1,27.0,30.31,WSW,238,4.0,-999.0,26,-99.99,,,0.00,weatherlink.com 1.10,2013-02-16 23:04:00,
2013-02-16 16:19:00,62.7,28.0,30.30,SW,221,1.0,-999.0,27,-99.99,,,0.00,weatherlink.com 1.10,2013-02-16 23:19:00,
2013-02-16 16:34:00,61.9,26.0,30.30,SW,233,0.0,-999.0,26,-99.99,,,0.00,weatherlink.com 1.10,2013-02-16 23:34:00,
2013-02-16 16:49:00,61.2,27.0,30.30,SW,228,0.0,-999.0,27,-99.99,,,0.00,weatherlink.com 1.10,2013-02-16 23:49:00,
2013-02-16 17:04:00,60.5,27.0,30.30,SW,228,0.0,-999.0,28,-99.99,,,0.00,weatherlink.com 1.10,2013-02-17 00:04:00,
2013-02-16 17:19:00,59.4,27.0,30.29,SW,228,0.0,-999.0,29,-99.99,,,0.00,weatherlink.com 1.10,2013-02-17 00:19:00,
2013-02-16 17:34:00,58.2,27.0,30.30,SW,228,0.0,-999.0,30,-99.99,,,0.00,weatherlink.com 1.10,2013-02-17 00:34:00,
2013-02-16 17:49:00,56.6,27.0,30.30,SW,228,0.0,-999.0,32,-99.99,,,0.00,weatherlink.com 1.10,2013-02-17 00:49:00,
2013-02-16 18:04:00,54.9,28.0,30.30,SW,228,0.0,-999.0,35,-99.99,,,0.00,weatherlink.com 1.10,2013-02-17 01:04:00,
2013-02-16 18:19:00,52.0,29.0,30.29,SW,228,0.0,-999.0,41,-99.99,,,0.00,weatherlink.com 1.10,2013-02-17 01:19:00,
2013-02-16 18:34:00,49.8,28.0,30.30,SW,228,0.0,-999.0,44,-99.99,,,0.00,weatherlink.com 1.10,2013-02-17 01:34:00,
2013-02-16 18:49:00,48.4,29.0,30.30,SW,228,0.0,-999.0,47,-99.99,,,0.00,weatherlink.com 1.10,2013-02-17 01:49:00,
2013-02-16 19:04:00,47.0,28.0,30.30,SW,224,0.0,-999.0,48,-99.99,,,0.00,weatherlink.com 1.10,2013-02-17 02:04:00,
2013-02-16 19:19:00,46.2,29.0,30.30,SW,224,0.0,-999.0,51,-99.99,,,0.00,weatherlink.com 1.10,2013-02-17 02:19:00,
2013-02-16 19:34:00,44.6,29.0,30.30,SW,224,0.0,-999.0,54,-99.99,,,0.00,weatherlink.com 1.10,2013-02-17 02:34:00,
2013-02-16 19:49:00,43.4,28.0,30.30,SW,224,0.0,-999.0,56,-99.99,,,0.00,weatherlink.com 1.10,2013-02-17 02:49:00,
2013-02-16 20:04:00,42.5,28.0,30.30,SW,224,0.0,-999.0,57,-99.99,,,0.00,weatherlink.com 1.10,2013-02-17 03:04:00,
2013-02-16 20:19:00,41.7,28.0,30.30,SW,224,0.0,-999.0,59,-99.99,,,0.00,weatherlink.com 1.10,2013-02-17 03:19:00,
2013-02-16 20:34:00,41.4,28.0,30.31,SW,224,0.0,-999.0,59,-99.99,,,0.00,weatherlink.com 1.10,2013-02-17 03:34:00,
2013-02-16 20:49:00,43.0,27.0,30.31,SW,224,0.0,-999.0,53,-99.99,,,0.00,weatherlink.com 1.10,2013-02-17 03:49:00,
2013-02-16 21:04:00,44.5,28.0,30.31,SW,224,0.0,-999.0,52,-99.99,,,0.00,weatherlink.com 1.10,2013-02-17 04:04:00,
2013-02-16 21:19:00,44.1,28.0,30.31,SW,224,0.0,-999.0,53,-99.99,,,0.00,weatherlink.com 1.10,2013-02-17 04:19:00,
2013-02-16 21:34:00,43.1,28.0,30.31,SW,224,0.0,-999.0,55,-99.99,,,0.00,weatherlink.com 1.10,2013-02-17 04:34:00,
2013-02-16 21:49:00,42.4,27.0,30.30,SW,224,0.0,-999.0,54,-99.99,,,0.00,weatherlink.com 1.10,2013-02-17 04:49:00,
2013-02-16 22:04:00,42.1,27.0,30.30,SW,224,0.0,-999.0,55,-99.99,,,0.00,weatherlink.com 1.10,2013-02-17 05:04:00,
2013-02-16 22:19:00,41.8,27.0,30.30,SW,224,0.0,-999.0,56,-99.99,,,0.00,weatherlink.com 1.10,2013-02-17 05:19:00,
2013-02-16 22:34:00,41.2,27.0,30.30,SW,224,0.0,-999.0,57,-99.99,,,0.00,weatherlink.com 1.10,2013-02-17 05:34:00,
2013-02-16 22:49:00,40.6,27.0,30.29,SW,224,0.0,-999.0,59,-99.99,,,0.00,weatherlink.com 1.10,2013-02-17 05:49:00,
2013-02-16 23:04:00,40.1,27.0,30.29,SW,224,0.0,-999.0,60,-99.99,,,0.00,weatherlink.com 1.10,2013-02-17 06:04:00,
2013-02-16 23:19:00,39.6,27.0,30.28,SW,224,0.0,-999.0,62,-99.99,,,0.00,weatherlink.com 1.10,2013-02-17 06:19:00,
2013-02-16 23:34:00,38.8,27.0,30.28,SW,224,0.0,-999.0,62,-99.99,,,0.00,weatherlink.com 1.10,2013-02-17 06:34:00,
2013-02-16 23:49:00,38.0,27.0,30.28,SW,224,0.0,-999.0,64,-99.99,,,0.00,weatherlink.com 1.10,2013-02-17 06:49:00,